sensor_id;sensor_type;location;lat;lon;timestamp;P1;durP1;ratioP1;P2;durP2;ratioP2
9667;SDS011;4872;48.316;10.650;2024-03-02T05:07:44;17.47;;;14.27;;
9667;SDS011;4872;48.316;10.650;2024-03-02T05:10:10;13.50;;;12.10;;
9667;SDS011;4872;48.316;10.650;2024-03-02T05:12:38;14.47;;;12.90;;
9667;SDS011;4872;48.316;10.650;2024-03-02T05:15:21;13.80;;;12.13;;
9667;SDS011;4872;48.316;10.650;2024-03-02T05:17:48;16.33;;;13.07;;
9667;SDS011;4872;48.316;10.650;2024-03-02T05:20:15;15.50;;;13.90;;
9667;SDS011;4872;48.316;10.650;2024-03-02T05:22:43;15.40;;;13.57;;
9667;SDS011;4872;48.316;10.650;2024-03-02T05:25:10;14.47;;;12.97;;
9667;SDS011;4872;48.316;10.650;2024-03-02T05:27:36;18.83;;;15.90;;
9667;SDS011;4872;48.316;10.650;2024-03-02T05:30:03;16.97;;;15.03;;
9667;SDS011;4872;48.316;10.650;2024-03-02T05:32:32;17.67;;;15.00;;
9667;SDS011;4872;48.316;10.650;2024-03-02T05:34:59;15.27;;;13.47;;
9667;SDS011;4872;48.316;10.650;2024-03-02T05:37:25;15.90;;;13.93;;
9667;SDS011;4872;48.316;10.650;2024-03-02T05:39:55;15.50;;;13.30;;
9667;SDS011;4872;48.316;10.650;2024-03-02T05:42:22;14.30;;;12.80;;
9667;SDS011;4872;48.316;10.650;2024-03-02T05:44:48;14.97;;;12.33;;
9667;SDS011;4872;48.316;10.650;2024-03-02T05:47:15;12.23;;;10.87;;
9667;SDS011;4872;48.316;10.650;2024-03-02T05:49:42;12.97;;;11.20;;
9667;SDS011;4872;48.316;10.650;2024-03-02T05:52:09;11.27;;;10.17;;
9667;SDS011;4872;48.316;10.650;2024-03-02T05:54:35;12.33;;;11.13;;
9667;SDS011;4872;48.316;10.650;2024-03-02T05:57:04;12.03;;;10.83;;
9667;SDS011;4872;48.316;10.650;2024-03-02T05:59:51;13.90;;;12.47;;
9667;SDS011;4872;48.316;10.650;2024-03-02T06:02:18;13.43;;;12.03;;
9667;SDS011;4872;48.316;10.650;2024-03-02T06:04:45;15.33;;;12.17;;
9667;SDS011;4872;48.316;10.650;2024-03-02T06:07:12;14.63;;;12.73;;
9667;SDS011;4872;48.316;10.650;2024-03-02T06:09:38;14.80;;;12.10;;
9667;SDS011;4872;48.316;10.650;2024-03-02T06:12:08;15.47;;;12.83;;
9667;SDS011;4872;48.316;10.650;2024-03-02T06:14:35;13.80;;;12.37;;
9667;SDS011;4872;48.316;10.650;2024-03-02T06:17:01;14.17;;;12.10;;
9667;SDS011;4872;48.316;10.650;2024-03-02T06:19:28;13.87;;;11.97;;
9667;SDS011;4872;48.316;10.650;2024-03-02T06:21:55;13.93;;;11.57;;
9667;SDS011;4872;48.316;10.650;2024-03-02T06:24:22;14.83;;;12.17;;
9667;SDS011;4872;48.316;10.650;2024-03-02T06:26:49;12.73;;;11.43;;
9667;SDS011;4872;48.316;10.650;2024-03-02T06:29:17;12.67;;;11.37;;
9667;SDS011;4872;48.316;10.650;2024-03-02T06:31:44;12.87;;;11.47;;
9667;SDS011;4872;48.316;10.650;2024-03-02T06:34:10;12.47;;;11.27;;
9667;SDS011;4872;48.316;10.650;2024-03-02T06:36:38;12.43;;;11.23;;
9667;SDS011;4872;48.316;10.650;2024-03-02T06:39:06;12.20;;;10.87;;
9667;SDS011;4872;48.316;10.650;2024-03-02T06:41:33;12.17;;;10.90;;
9667;SDS011;4872;48.316;10.650;2024-03-02T06:44:00;11.70;;;10.50;;
9667;SDS011;4872;48.316;10.650;2024-03-02T06:46:28;10.63;;;9.60;;
9667;SDS011;4872;48.316;10.650;2024-03-02T06:48:55;10.67;;;9.67;;
9667;SDS011;4872;48.316;10.650;2024-03-02T06:51:22;12.47;;;11.20;;
9667;SDS011;4872;48.316;10.650;2024-03-02T06:53:49;16.70;;;12.73;;
9667;SDS011;4872;48.316;10.650;2024-03-02T06:56:15;20.57;;;17.17;;
9667;SDS011;4872;48.316;10.650;2024-03-02T06:58:42;19.03;;;16.07;;
9667;SDS011;4872;48.316;10.650;2024-03-02T07:01:09;13.97;;;12.50;;
9667;SDS011;4872;48.316;10.650;2024-03-02T07:03:37;11.77;;;10.60;;
9667;SDS011;4872;48.316;10.650;2024-03-02T07:06:04;11.00;;;9.90;;
9667;SDS011;4872;48.316;10.650;2024-03-02T07:08:31;15.63;;;13.97;;
9667;SDS011;4872;48.316;10.650;2024-03-02T07:10:57;15.93;;;13.07;;
9667;SDS011;4872;48.316;10.650;2024-03-02T07:13:24;13.30;;;11.90;;
9667;SDS011;4872;48.316;10.650;2024-03-02T07:15:51;14.00;;;12.13;;
9667;SDS011;4872;48.316;10.650;2024-03-02T07:18:47;14.40;;;11.27;;
9667;SDS011;4872;48.316;10.650;2024-03-02T07:21:16;13.93;;;11.93;;
9667;SDS011;4872;48.316;10.650;2024-03-02T07:23:43;13.73;;;11.83;;
9667;SDS011;4872;48.316;10.650;2024-03-02T07:26:10;11.70;;;10.50;;
9667;SDS011;4872;48.316;10.650;2024-03-02T07:28:37;11.60;;;10.47;;
9667;SDS011;4872;48.316;10.650;2024-03-02T07:31:04;10.93;;;9.67;;
9667;SDS011;4872;48.316;10.650;2024-03-02T07:33:35;14.60;;;11.47;;
9667;SDS011;4872;48.316;10.650;2024-03-02T07:36:04;89.87;;;53.87;;
9667;SDS011;4872;48.316;10.650;2024-03-02T07:38:31;15.00;;;13.23;;
9667;SDS011;4872;48.316;10.650;2024-03-02T07:40:59;9.50;;;8.70;;
9667;SDS011;4872;48.316;10.650;2024-03-02T07:43:26;10.27;;;9.23;;
9667;SDS011;4872;48.316;10.650;2024-03-02T07:45:53;8.37;;;7.63;;
9667;SDS011;4872;48.316;10.650;2024-03-02T07:48:20;10.43;;;9.43;;
9667;SDS011;4872;48.316;10.650;2024-03-02T07:50:47;11.30;;;10.30;;
9667;SDS011;4872;48.316;10.650;2024-03-02T07:53:15;7.60;;;6.90;;
9667;SDS011;4872;48.316;10.650;2024-03-02T07:55:42;7.20;;;6.60;;
9667;SDS011;4872;48.316;10.650;2024-03-02T07:58:16;8.03;;;7.23;;
9667;SDS011;4872;48.316;10.650;2024-03-02T08:00:46;8.47;;;7.67;;
9667;SDS011;4872;48.316;10.650;2024-03-02T08:03:13;7.07;;;6.43;;
9667;SDS011;4872;48.316;10.650;2024-03-02T08:05:40;7.57;;;6.93;;
9667;SDS011;4872;48.316;10.650;2024-03-02T08:08:09;7.57;;;6.87;;
9667;SDS011;4872;48.316;10.650;2024-03-02T08:10:41;8.03;;;7.23;;
9667;SDS011;4872;48.316;10.650;2024-03-02T08:13:08;7.87;;;7.17;;
9667;SDS011;4872;48.316;10.650;2024-03-02T08:15:35;10.97;;;7.53;;
9667;SDS011;4872;48.316;10.650;2024-03-02T08:18:08;8.10;;;7.43;;
9667;SDS011;4872;48.316;10.650;2024-03-02T08:24:08;7.37;;;6.67;;
9667;SDS011;4872;48.316;10.650;2024-03-02T08:36:40;6.70;;;6.10;;
9667;SDS011;4872;48.316;10.650;2024-03-02T08:39:34;5.07;;;4.57;;
9667;SDS011;4872;48.316;10.650;2024-03-02T08:42:04;4.20;;;3.90;;
9667;SDS011;4872;48.316;10.650;2024-03-02T08:51:05;5.90;;;5.30;;
9667;SDS011;4872;48.316;10.650;2024-03-02T08:53:34;5.97;;;5.47;;
9667;SDS011;4872;48.316;10.650;2024-03-02T08:56:01;5.80;;;5.30;;
9667;SDS011;4872;48.316;10.650;2024-03-02T08:58:30;6.50;;;5.90;;
9667;SDS011;4872;48.316;10.650;2024-03-02T09:00:57;5.73;;;5.13;;
9667;SDS011;4872;48.316;10.650;2024-03-02T09:03:24;5.73;;;5.23;;
9667;SDS011;4872;48.316;10.650;2024-03-02T09:05:51;6.40;;;5.80;;
9667;SDS011;4872;48.316;10.650;2024-03-02T09:08:17;6.40;;;5.40;;
9667;SDS011;4872;48.316;10.650;2024-03-02T09:10:45;5.43;;;4.93;;
9667;SDS011;4872;48.316;10.650;2024-03-02T09:13:12;5.37;;;4.87;;
9667;SDS011;4872;48.316;10.650;2024-03-02T09:15:39;5.40;;;4.60;;
9667;SDS011;4872;48.316;10.650;2024-03-02T09:18:06;5.70;;;5.20;;
9667;SDS011;4872;48.316;10.650;2024-03-02T09:20:33;5.53;;;5.03;;
9667;SDS011;4872;48.316;10.650;2024-03-02T09:23:00;5.50;;;4.93;;
9667;SDS011;4872;48.316;10.650;2024-03-02T09:25:26;5.63;;;5.13;;
9667;SDS011;4872;48.316;10.650;2024-03-02T09:27:54;5.23;;;4.73;;
9667;SDS011;4872;48.316;10.650;2024-03-02T09:30:21;5.27;;;4.77;;
9667;SDS011;4872;48.316;10.650;2024-03-02T09:32:48;4.50;;;4.10;;
9667;SDS011;4872;48.316;10.650;2024-03-02T09:35:15;5.10;;;4.60;;
9667;SDS011;4872;48.316;10.650;2024-03-02T09:37:42;4.40;;;4.00;;
9667;SDS011;4872;48.316;10.650;2024-03-02T09:40:09;7.10;;;6.00;;
9667;SDS011;4872;48.316;10.650;2024-03-02T09:42:37;4.30;;;3.90;;
9667;SDS011;4872;48.316;10.650;2024-03-02T09:45:06;4.47;;;4.07;;
9667;SDS011;4872;48.316;10.650;2024-03-02T09:47:35;4.07;;;3.70;;
9667;SDS011;4872;48.316;10.650;2024-03-02T09:50:02;4.40;;;4.00;;
9667;SDS011;4872;48.316;10.650;2024-03-02T09:55:31;3.83;;;3.10;;
9667;SDS011;4872;48.316;10.650;2024-03-02T09:57:58;3.60;;;3.30;;
9667;SDS011;4872;48.316;10.650;2024-03-02T10:00:26;5.10;;;4.63;;
9667;SDS011;4872;48.316;10.650;2024-03-02T10:02:52;3.63;;;3.33;;
9667;SDS011;4872;48.316;10.650;2024-03-02T10:05:25;3.67;;;3.37;;
9667;SDS011;4872;48.316;10.650;2024-03-02T10:07:59;3.30;;;3.00;;
9667;SDS011;4872;48.316;10.650;2024-03-02T10:10:34;4.40;;;4.00;;
9667;SDS011;4872;48.316;10.650;2024-03-02T10:13:05;3.90;;;3.60;;
9667;SDS011;4872;48.316;10.650;2024-03-02T10:15:33;3.37;;;3.17;;
9667;SDS011;4872;48.316;10.650;2024-03-02T10:18:01;3.30;;;3.10;;
9667;SDS011;4872;48.316;10.650;2024-03-02T10:20:28;3.80;;;3.50;;
9667;SDS011;4872;48.316;10.650;2024-03-02T10:22:55;3.10;;;2.90;;
9667;SDS011;4872;48.316;10.650;2024-03-02T10:25:28;3.33;;;3.13;;
9667;SDS011;4872;48.316;10.650;2024-03-02T10:27:57;3.67;;;3.37;;
9667;SDS011;4872;48.316;10.650;2024-03-02T10:30:24;4.73;;;3.63;;
9667;SDS011;4872;48.316;10.650;2024-03-02T10:32:54;5.73;;;4.50;;
9667;SDS011;4872;48.316;10.650;2024-03-02T10:35:21;3.87;;;3.47;;
9667;SDS011;4872;48.316;10.650;2024-03-02T10:37:49;5.10;;;4.63;;
9667;SDS011;4872;48.316;10.650;2024-03-02T10:40:17;4.07;;;3.77;;
9667;SDS011;4872;48.316;10.650;2024-03-02T10:42:44;7.73;;;7.10;;
9667;SDS011;4872;48.316;10.650;2024-03-02T10:45:12;5.33;;;4.83;;
9667;SDS011;4872;48.316;10.650;2024-03-02T10:47:41;4.53;;;4.13;;
9667;SDS011;4872;48.316;10.650;2024-03-02T10:50:10;3.53;;;3.23;;
9667;SDS011;4872;48.316;10.650;2024-03-02T10:52:37;4.90;;;3.40;;
9667;SDS011;4872;48.316;10.650;2024-03-02T10:55:05;3.53;;;3.27;;
9667;SDS011;4872;48.316;10.650;2024-03-02T10:57:36;3.83;;;3.20;;
9667;SDS011;4872;48.316;10.650;2024-03-02T11:00:09;3.50;;;3.20;;
9667;SDS011;4872;48.316;10.650;2024-03-02T11:02:40;2.50;;;2.30;;
9667;SDS011;4872;48.316;10.650;2024-03-02T11:05:14;2.20;;;2.00;;
9667;SDS011;4872;48.316;10.650;2024-03-02T11:07:50;2.97;;;2.40;;
9667;SDS011;4872;48.316;10.650;2024-03-02T11:10:19;2.70;;;2.30;;
9667;SDS011;4872;48.316;10.650;2024-03-02T11:12:48;2.37;;;2.17;;
9667;SDS011;4872;48.316;10.650;2024-03-02T11:15:22;2.23;;;2.03;;
9667;SDS011;4872;48.316;10.650;2024-03-02T11:17:52;2.10;;;1.90;;
9667;SDS011;4872;48.316;10.650;2024-03-02T11:20:21;2.47;;;2.27;;
9667;SDS011;4872;48.316;10.650;2024-03-02T11:22:49;1.93;;;1.73;;
9667;SDS011;4872;48.316;10.650;2024-03-02T11:25:23;3.40;;;3.10;;
9667;SDS011;4872;48.316;10.650;2024-03-02T11:28:00;3.27;;;2.30;;
9667;SDS011;4872;48.316;10.650;2024-03-02T11:33:56;2.27;;;2.07;;
9667;SDS011;4872;48.316;10.650;2024-03-02T11:36:24;2.10;;;1.87;;
9667;SDS011;4872;48.316;10.650;2024-03-02T11:38:52;1.50;;;1.40;;
9667;SDS011;4872;48.316;10.650;2024-03-02T11:41:34;2.03;;;1.43;;
9667;SDS011;4872;48.316;10.650;2024-03-02T11:44:01;2.27;;;1.50;;
9667;SDS011;4872;48.316;10.650;2024-03-02T11:46:30;1.93;;;1.60;;
9667;SDS011;4872;48.316;10.650;2024-03-02T11:48:57;1.57;;;1.47;;
9667;SDS011;4872;48.316;10.650;2024-03-02T11:51:25;2.30;;;1.70;;
9667;SDS011;4872;48.316;10.650;2024-03-02T11:53:52;1.80;;;1.70;;
9667;SDS011;4872;48.316;10.650;2024-03-02T11:56:22;2.37;;;2.17;;
9667;SDS011;4872;48.316;10.650;2024-03-02T11:58:50;2.57;;;2.37;;
9667;SDS011;4872;48.316;10.650;2024-03-02T12:01:19;2.70;;;2.50;;
9667;SDS011;4872;48.316;10.650;2024-03-02T12:03:47;3.93;;;2.60;;
9667;SDS011;4872;48.316;10.650;2024-03-02T12:06:14;1.80;;;1.70;;
9667;SDS011;4872;48.316;10.650;2024-03-02T12:08:42;2.23;;;1.80;;
9667;SDS011;4872;48.316;10.650;2024-03-02T12:11:12;1.80;;;1.70;;
9667;SDS011;4872;48.316;10.650;2024-03-02T12:13:39;2.20;;;2.00;;
9667;SDS011;4872;48.316;10.650;2024-03-02T12:16:06;2.33;;;2.13;;
9667;SDS011;4872;48.316;10.650;2024-03-02T12:18:33;2.47;;;2.10;;
9667;SDS011;4872;48.316;10.650;2024-03-02T12:21:00;2.50;;;2.30;;
9667;SDS011;4872;48.316;10.650;2024-03-02T12:23:29;2.30;;;2.10;;
9667;SDS011;4872;48.316;10.650;2024-03-02T12:25:57;2.53;;;2.30;;
9667;SDS011;4872;48.316;10.650;2024-03-02T12:28:24;2.50;;;2.30;;
9667;SDS011;4872;48.316;10.650;2024-03-02T12:30:51;3.20;;;2.90;;
9667;SDS011;4872;48.316;10.650;2024-03-02T12:33:18;4.43;;;3.27;;
9667;SDS011;4872;48.316;10.650;2024-03-02T12:35:46;2.97;;;2.77;;
9667;SDS011;4872;48.316;10.650;2024-03-02T12:38:12;4.10;;;2.37;;
9667;SDS011;4872;48.316;10.650;2024-03-02T12:40:41;3.07;;;2.77;;
9667;SDS011;4872;48.316;10.650;2024-03-02T12:43:09;4.23;;;3.83;;
9667;SDS011;4872;48.316;10.650;2024-03-02T12:45:36;3.23;;;2.80;;
9667;SDS011;4872;48.316;10.650;2024-03-02T12:48:03;3.70;;;3.40;;
9667;SDS011;4872;48.316;10.650;2024-03-02T12:50:31;5.53;;;5.00;;
9667;SDS011;4872;48.316;10.650;2024-03-02T12:52:59;5.27;;;4.77;;
9667;SDS011;4872;48.316;10.650;2024-03-02T12:55:25;5.67;;;5.00;;
9667;SDS011;4872;48.316;10.650;2024-03-02T12:57:54;5.80;;;4.97;;
9667;SDS011;4872;48.316;10.650;2024-03-02T13:00:23;5.73;;;4.67;;
9667;SDS011;4872;48.316;10.650;2024-03-02T13:02:50;5.50;;;5.00;;
9667;SDS011;4872;48.316;10.650;2024-03-02T13:11:51;6.00;;;5.23;;
9667;SDS011;4872;48.316;10.650;2024-03-02T13:14:18;5.30;;;4.80;;
9667;SDS011;4872;48.316;10.650;2024-03-02T13:16:51;5.23;;;4.73;;
9667;SDS011;4872;48.316;10.650;2024-03-02T13:19:18;5.53;;;4.60;;
9667;SDS011;4872;48.316;10.650;2024-03-02T13:22:12;5.20;;;4.70;;
9667;SDS011;4872;48.316;10.650;2024-03-02T13:28:03;5.53;;;4.97;;
9667;SDS011;4872;48.316;10.650;2024-03-02T13:30:31;6.03;;;5.47;;
9667;SDS011;4872;48.316;10.650;2024-03-02T13:33:11;6.30;;;5.10;;
9667;SDS011;4872;48.316;10.650;2024-03-02T13:47:10;8.30;;;6.77;;
9667;SDS011;4872;48.316;10.650;2024-03-02T13:49:38;8.60;;;6.90;;
9667;SDS011;4872;48.316;10.650;2024-03-02T14:00:53;9.07;;;7.57;;
9667;SDS011;4872;48.316;10.650;2024-03-02T14:03:21;10.17;;;8.47;;
9667;SDS011;4872;48.316;10.650;2024-03-02T14:05:50;11.23;;;8.67;;
9667;SDS011;4872;48.316;10.650;2024-03-02T14:08:17;9.77;;;8.30;;
9667;SDS011;4872;48.316;10.650;2024-03-02T14:10:44;10.73;;;8.17;;
9667;SDS011;4872;48.316;10.650;2024-03-02T14:13:11;10.37;;;8.37;;
9667;SDS011;4872;48.316;10.650;2024-03-02T14:15:38;9.17;;;8.13;;
9667;SDS011;4872;48.316;10.650;2024-03-02T14:18:12;12.47;;;9.33;;
9667;SDS011;4872;48.316;10.650;2024-03-02T14:20:39;9.90;;;8.03;;
9667;SDS011;4872;48.316;10.650;2024-03-02T14:23:08;11.43;;;8.73;;
9667;SDS011;4872;48.316;10.650;2024-03-02T14:25:42;11.20;;;9.07;;
9667;SDS011;4872;48.316;10.650;2024-03-02T14:28:09;11.80;;;9.70;;
9667;SDS011;4872;48.316;10.650;2024-03-02T14:30:37;12.47;;;10.40;;
9667;SDS011;4872;48.316;10.650;2024-03-02T14:33:04;12.20;;;10.33;;
9667;SDS011;4872;48.316;10.650;2024-03-02T14:35:31;13.83;;;10.20;;
9667;SDS011;4872;48.316;10.650;2024-03-02T14:37:58;12.93;;;10.87;;
9667;SDS011;4872;48.316;10.650;2024-03-02T14:40:26;14.30;;;11.27;;
9667;SDS011;4872;48.316;10.650;2024-03-02T14:42:54;12.17;;;9.77;;
9667;SDS011;4872;48.316;10.650;2024-03-02T14:45:21;12.43;;;10.10;;
9667;SDS011;4872;48.316;10.650;2024-03-02T14:47:49;13.00;;;10.47;;
9667;SDS011;4872;48.316;10.650;2024-03-02T14:50:16;14.30;;;11.37;;
9667;SDS011;4872;48.316;10.650;2024-03-02T14:52:43;12.53;;;9.80;;
9667;SDS011;4872;48.316;10.650;2024-03-02T14:55:10;16.77;;;12.20;;
9667;SDS011;4872;48.316;10.650;2024-03-02T14:57:38;14.50;;;11.20;;
9667;SDS011;4872;48.316;10.650;2024-03-02T15:00:06;12.33;;;9.60;;
9667;SDS011;4872;48.316;10.650;2024-03-02T15:02:33;16.40;;;11.87;;
9667;SDS011;4872;48.316;10.650;2024-03-02T15:05:00;18.40;;;14.43;;
9667;SDS011;4872;48.316;10.650;2024-03-02T15:07:27;19.07;;;14.90;;
9667;SDS011;4872;48.316;10.650;2024-03-02T15:09:54;19.47;;;14.57;;
9667;SDS011;4872;48.316;10.650;2024-03-02T15:12:21;17.50;;;14.80;;
9667;SDS011;4872;48.316;10.650;2024-03-02T15:14:49;20.43;;;14.93;;
9667;SDS011;4872;48.316;10.650;2024-03-02T15:17:16;19.93;;;15.30;;
9667;SDS011;4872;48.316;10.650;2024-03-02T15:19:43;17.63;;;14.33;;
9667;SDS011;4872;48.316;10.650;2024-03-02T15:22:10;18.50;;;13.73;;
9667;SDS011;4872;48.316;10.650;2024-03-02T15:24:38;16.37;;;12.57;;
9667;SDS011;4872;48.316;10.650;2024-03-02T15:27:05;16.50;;;12.77;;
9667;SDS011;4872;48.316;10.650;2024-03-02T15:29:33;16.67;;;13.00;;
9667;SDS011;4872;48.316;10.650;2024-03-02T15:32:02;16.40;;;13.47;;
9667;SDS011;4872;48.316;10.650;2024-03-02T15:34:31;14.60;;;12.17;;
9667;SDS011;4872;48.316;10.650;2024-03-02T15:36:58;15.20;;;13.10;;
9667;SDS011;4872;48.316;10.650;2024-03-02T15:39:26;17.13;;;12.40;;
9667;SDS011;4872;48.316;10.650;2024-03-02T15:41:52;15.33;;;11.70;;
9667;SDS011;4872;48.316;10.650;2024-03-02T15:44:19;15.60;;;11.60;;
9667;SDS011;4872;48.316;10.650;2024-03-02T15:46:46;14.40;;;11.07;;
9667;SDS011;4872;48.316;10.650;2024-03-02T15:49:14;15.87;;;10.73;;
9667;SDS011;4872;48.316;10.650;2024-03-02T15:51:41;15.23;;;11.07;;
9667;SDS011;4872;48.316;10.650;2024-03-02T15:54:09;15.07;;;11.60;;
9667;SDS011;4872;48.316;10.650;2024-03-02T15:56:36;18.17;;;10.43;;
9667;SDS011;4872;48.316;10.650;2024-03-02T15:59:03;13.37;;;10.63;;
9667;SDS011;4872;48.316;10.650;2024-03-02T16:01:30;13.70;;;9.97;;
9667;SDS011;4872;48.316;10.650;2024-03-02T16:03:57;12.70;;;9.20;;
9667;SDS011;4872;48.316;10.650;2024-03-02T16:06:25;12.30;;;10.00;;
9667;SDS011;4872;48.316;10.650;2024-03-02T16:08:52;12.90;;;9.83;;
9667;SDS011;4872;48.316;10.650;2024-03-02T16:11:20;13.50;;;9.40;;
9667;SDS011;4872;48.316;10.650;2024-03-02T16:13:47;14.63;;;10.80;;
9667;SDS011;4872;48.316;10.650;2024-03-02T16:16:14;14.50;;;9.53;;
9667;SDS011;4872;48.316;10.650;2024-03-02T16:18:41;15.40;;;11.30;;
9667;SDS011;4872;48.316;10.650;2024-03-02T16:21:08;14.30;;;9.40;;
9667;SDS011;4872;48.316;10.650;2024-03-02T16:23:36;14.47;;;11.17;;
9667;SDS011;4872;48.316;10.650;2024-03-02T16:26:03;13.43;;;10.20;;
9667;SDS011;4872;48.316;10.650;2024-03-02T16:28:30;17.70;;;11.07;;
9667;SDS011;4872;48.316;10.650;2024-03-02T16:30:57;17.13;;;12.83;;
9667;SDS011;4872;48.316;10.650;2024-03-02T16:33:24;16.63;;;11.07;;
9667;SDS011;4872;48.316;10.650;2024-03-02T16:35:51;17.07;;;12.03;;
9667;SDS011;4872;48.316;10.650;2024-03-02T16:38:17;15.53;;;10.37;;
9667;SDS011;4872;48.316;10.650;2024-03-02T16:40:45;14.37;;;10.43;;
9667;SDS011;4872;48.316;10.650;2024-03-02T16:43:13;14.47;;;10.23;;
9667;SDS011;4872;48.316;10.650;2024-03-02T16:48:26;15.40;;;10.17;;
9667;SDS011;4872;48.316;10.650;2024-03-02T16:50:53;14.90;;;10.73;;
9667;SDS011;4872;48.316;10.650;2024-03-02T16:56:23;13.60;;;10.83;;
9667;SDS011;4872;48.316;10.650;2024-03-02T16:58:49;16.17;;;11.77;;
9667;SDS011;4872;48.316;10.650;2024-03-02T17:01:16;16.03;;;12.10;;
9667;SDS011;4872;48.316;10.650;2024-03-02T17:03:43;14.83;;;11.17;;
9667;SDS011;4872;48.316;10.650;2024-03-02T17:06:10;17.03;;;13.07;;
9667;SDS011;4872;48.316;10.650;2024-03-02T17:08:37;16.63;;;12.80;;
9667;SDS011;4872;48.316;10.650;2024-03-02T17:11:03;16.83;;;12.77;;
9667;SDS011;4872;48.316;10.650;2024-03-02T17:13:31;19.90;;;13.70;;
9667;SDS011;4872;48.316;10.650;2024-03-02T17:15:58;18.00;;;13.37;;
9667;SDS011;4872;48.316;10.650;2024-03-02T17:18:25;17.27;;;12.23;;
9667;SDS011;4872;48.316;10.650;2024-03-02T17:20:52;17.53;;;12.60;;
9667;SDS011;4872;48.316;10.650;2024-03-02T17:23:18;18.17;;;12.70;;
9667;SDS011;4872;48.316;10.650;2024-03-02T17:25:45;19.37;;;14.73;;
9667;SDS011;4872;48.316;10.650;2024-03-02T17:28:20;17.63;;;13.93;;
9667;SDS011;4872;48.316;10.650;2024-03-02T17:31:01;20.90;;;14.53;;
9667;SDS011;4872;48.316;10.650;2024-03-02T17:33:34;23.73;;;17.03;;
9667;SDS011;4872;48.316;10.650;2024-03-02T17:36:01;21.37;;;15.83;;
9667;SDS011;4872;48.316;10.650;2024-03-02T17:38:28;23.87;;;17.17;;
9667;SDS011;4872;48.316;10.650;2024-03-02T17:40:55;25.43;;;18.07;;
9667;SDS011;4872;48.316;10.650;2024-03-02T17:43:22;22.53;;;17.33;;
9667;SDS011;4872;48.316;10.650;2024-03-02T17:45:49;24.13;;;17.97;;
9667;SDS011;4872;48.316;10.650;2024-03-02T17:48:17;26.17;;;19.43;;
9667;SDS011;4872;48.316;10.650;2024-03-02T17:50:46;27.87;;;18.70;;
9667;SDS011;4872;48.316;10.650;2024-03-02T17:53:13;31.50;;;21.03;;
9667;SDS011;4872;48.316;10.650;2024-03-02T17:55:40;24.80;;;19.40;;
9667;SDS011;4872;48.316;10.650;2024-03-02T17:58:14;27.47;;;19.53;;
9667;SDS011;4872;48.316;10.650;2024-03-02T18:00:41;27.50;;;18.80;;
9667;SDS011;4872;48.316;10.650;2024-03-02T18:03:09;29.37;;;20.07;;
9667;SDS011;4872;48.316;10.650;2024-03-02T18:05:37;27.03;;;20.00;;
9667;SDS011;4872;48.316;10.650;2024-03-02T18:08:05;28.53;;;19.67;;
9667;SDS011;4872;48.316;10.650;2024-03-02T18:10:32;29.20;;;21.70;;
9667;SDS011;4872;48.316;10.650;2024-03-02T18:12:59;36.97;;;24.20;;
9667;SDS011;4872;48.316;10.650;2024-03-02T18:15:26;29.23;;;21.53;;
9667;SDS011;4872;48.316;10.650;2024-03-02T18:17:52;30.93;;;21.30;;
9667;SDS011;4872;48.316;10.650;2024-03-02T18:20:19;30.97;;;21.40;;
9667;SDS011;4872;48.316;10.650;2024-03-02T18:22:47;28.60;;;20.57;;
9667;SDS011;4872;48.316;10.650;2024-03-02T18:25:14;31.03;;;21.43;;
9667;SDS011;4872;48.316;10.650;2024-03-02T18:30:44;33.33;;;23.57;;
9667;SDS011;4872;48.316;10.650;2024-03-02T18:33:11;34.50;;;23.37;;
9667;SDS011;4872;48.316;10.650;2024-03-02T18:35:37;47.20;;;32.87;;
9667;SDS011;4872;48.316;10.650;2024-03-02T18:38:05;33.47;;;23.33;;
9667;SDS011;4872;48.316;10.650;2024-03-02T18:40:32;30.50;;;23.50;;
9667;SDS011;4872;48.316;10.650;2024-03-02T18:42:59;33.73;;;23.43;;
9667;SDS011;4872;48.316;10.650;2024-03-02T18:45:45;32.67;;;22.03;;
9667;SDS011;4872;48.316;10.650;2024-03-02T18:48:11;33.03;;;22.93;;
9667;SDS011;4872;48.316;10.650;2024-03-02T18:50:39;34.43;;;23.53;;
9667;SDS011;4872;48.316;10.650;2024-03-02T18:53:07;33.03;;;22.73;;
9667;SDS011;4872;48.316;10.650;2024-03-02T18:55:34;34.23;;;23.70;;
9667;SDS011;4872;48.316;10.650;2024-03-02T18:58:01;35.47;;;24.47;;
9667;SDS011;4872;48.316;10.650;2024-03-02T19:00:28;36.33;;;24.00;;
9667;SDS011;4872;48.316;10.650;2024-03-02T19:02:55;33.07;;;23.87;;
9667;SDS011;4872;48.316;10.650;2024-03-02T19:05:22;40.20;;;25.30;;
9667;SDS011;4872;48.316;10.650;2024-03-02T19:07:49;40.37;;;25.53;;
9667;SDS011;4872;48.316;10.650;2024-03-02T19:10:17;37.37;;;25.07;;
9667;SDS011;4872;48.316;10.650;2024-03-02T19:12:43;39.70;;;27.80;;
9667;SDS011;4872;48.316;10.650;2024-03-02T19:15:12;42.53;;;26.43;;
9667;SDS011;4872;48.316;10.650;2024-03-02T19:17:39;38.33;;;26.17;;
9667;SDS011;4872;48.316;10.650;2024-03-02T19:20:06;37.47;;;26.10;;
9667;SDS011;4872;48.316;10.650;2024-03-02T19:22:35;40.30;;;26.53;;
9667;SDS011;4872;48.316;10.650;2024-03-02T19:25:02;40.77;;;27.43;;
9667;SDS011;4872;48.316;10.650;2024-03-02T19:27:33;38.13;;;26.33;;
9667;SDS011;4872;48.316;10.650;2024-03-02T19:30:00;42.10;;;28.30;;
9667;SDS011;4872;48.316;10.650;2024-03-02T19:32:29;41.23;;;26.63;;
9667;SDS011;4872;48.316;10.650;2024-03-02T19:34:56;42.83;;;28.30;;
9667;SDS011;4872;48.316;10.650;2024-03-02T19:37:24;38.10;;;26.20;;
9667;SDS011;4872;48.316;10.650;2024-03-02T19:39:51;42.17;;;27.13;;
9667;SDS011;4872;48.316;10.650;2024-03-02T19:42:18;44.77;;;27.27;;
9667;SDS011;4872;48.316;10.650;2024-03-02T19:44:46;39.53;;;25.93;;
9667;SDS011;4872;48.316;10.650;2024-03-02T19:47:13;36.87;;;26.37;;
9667;SDS011;4872;48.316;10.650;2024-03-02T19:49:43;42.87;;;27.53;;
9667;SDS011;4872;48.316;10.650;2024-03-02T19:52:10;37.93;;;25.67;;
9667;SDS011;4872;48.316;10.650;2024-03-02T19:54:36;37.23;;;25.80;;
9667;SDS011;4872;48.316;10.650;2024-03-02T19:57:03;36.13;;;26.27;;
9667;SDS011;4872;48.316;10.650;2024-03-02T19:59:30;41.07;;;27.73;;
9667;SDS011;4872;48.316;10.650;2024-03-02T20:01:59;40.53;;;26.23;;
9667;SDS011;4872;48.316;10.650;2024-03-02T20:04:26;38.47;;;27.27;;
9667;SDS011;4872;48.316;10.650;2024-03-02T20:06:53;38.53;;;26.17;;
9667;SDS011;4872;48.316;10.650;2024-03-02T20:09:21;38.83;;;26.03;;
9667;SDS011;4872;48.316;10.650;2024-03-02T20:11:47;40.03;;;27.00;;
9667;SDS011;4872;48.316;10.650;2024-03-02T20:14:14;35.90;;;25.63;;
9667;SDS011;4872;48.316;10.650;2024-03-02T20:16:42;40.67;;;26.00;;
9667;SDS011;4872;48.316;10.650;2024-03-02T20:19:10;39.43;;;25.53;;
9667;SDS011;4872;48.316;10.650;2024-03-02T20:21:37;37.87;;;25.47;;
9667;SDS011;4872;48.316;10.650;2024-03-02T20:24:04;41.93;;;27.63;;
9667;SDS011;4872;48.316;10.650;2024-03-02T20:26:31;38.53;;;26.80;;
9667;SDS011;4872;48.316;10.650;2024-03-02T20:28:58;41.10;;;28.27;;
9667;SDS011;4872;48.316;10.650;2024-03-02T20:31:26;42.77;;;29.00;;
9667;SDS011;4872;48.316;10.650;2024-03-02T20:33:53;39.47;;;27.80;;
9667;SDS011;4872;48.316;10.650;2024-03-02T20:36:21;42.10;;;28.93;;
9667;SDS011;4872;48.316;10.650;2024-03-02T20:38:47;43.23;;;29.23;;
9667;SDS011;4872;48.316;10.650;2024-03-02T20:41:14;40.27;;;28.77;;
9667;SDS011;4872;48.316;10.650;2024-03-02T20:43:42;44.63;;;28.77;;
9667;SDS011;4872;48.316;10.650;2024-03-02T20:52:22;41.50;;;28.90;;
9667;SDS011;4872;48.316;10.650;2024-03-02T20:54:49;42.07;;;29.50;;
9667;SDS011;4872;48.316;10.650;2024-03-02T20:57:16;42.27;;;28.40;;
9667;SDS011;4872;48.316;10.650;2024-03-02T20:59:44;41.83;;;28.50;;
9667;SDS011;4872;48.316;10.650;2024-03-02T21:02:11;40.83;;;27.70;;
9667;SDS011;4872;48.316;10.650;2024-03-02T21:04:38;39.13;;;27.97;;
9667;SDS011;4872;48.316;10.650;2024-03-02T21:07:07;42.50;;;28.70;;
9667;SDS011;4872;48.316;10.650;2024-03-02T21:09:35;45.77;;;30.47;;